sensor_id;sensor_type;location;lat;lon;timestamp;P1;durP1;ratioP1;P2;durP2;ratioP2
70414;SDS011;57837;52.064;113.478;2023-02-03T00:02:55;81.20;;;41.67;;
70414;SDS011;57837;52.064;113.478;2023-02-03T00:05:59;83.57;;;37.92;;
70414;SDS011;57837;52.064;113.478;2023-02-03T00:09:03;123.28;;;51.78;;
70414;SDS011;57837;52.064;113.478;2023-02-03T00:12:08;95.90;;;37.57;;
70414;SDS011;57837;52.064;113.478;2023-02-03T00:15:12;67.18;;;38.70;;
70414;SDS011;57837;52.064;113.478;2023-02-03T00:18:15;98.95;;;60.03;;
70414;SDS011;57837;52.064;113.478;2023-02-03T00:21:18;74.85;;;40.15;;
70414;SDS011;57837;52.064;113.478;2023-02-03T00:24:22;66.50;;;39.50;;
70414;SDS011;57837;52.064;113.478;2023-02-03T00:27:26;141.25;;;63.92;;
70414;SDS011;57837;52.064;113.478;2023-02-03T00:30:30;137.43;;;67.28;;
70414;SDS011;57837;52.064;113.478;2023-02-03T00:33:36;130.73;;;61.17;;
70414;SDS011;57837;52.064;113.478;2023-02-03T00:36:41;225.05;;;89.07;;
70414;SDS011;57837;52.064;113.478;2023-02-03T00:39:45;168.38;;;74.05;;
70414;SDS011;57837;52.064;113.478;2023-02-03T00:42:48;109.17;;;59.80;;
70414;SDS011;57837;52.064;113.478;2023-02-03T00:45:52;145.82;;;80.60;;
70414;SDS011;57837;52.064;113.478;2023-02-03T00:48:57;151.40;;;67.05;;
70414;SDS011;57837;52.064;113.478;2023-02-03T00:52:00;134.88;;;61.25;;
70414;SDS011;57837;52.064;113.478;2023-02-03T00:55:04;161.48;;;65.70;;
70414;SDS011;57837;52.064;113.478;2023-02-03T00:58:07;107.60;;;57.55;;
70414;SDS011;57837;52.064;113.478;2023-02-03T01:01:11;92.15;;;54.53;;
70414;SDS011;57837;52.064;113.478;2023-02-03T01:04:16;145.03;;;71.37;;
70414;SDS011;57837;52.064;113.478;2023-02-03T01:07:19;134.10;;;67.10;;
70414;SDS011;57837;52.064;113.478;2023-02-03T01:10:23;138.63;;;55.17;;
70414;SDS011;57837;52.064;113.478;2023-02-03T01:13:27;135.63;;;62.57;;
70414;SDS011;57837;52.064;113.478;2023-02-03T01:16:30;159.90;;;75.13;;
70414;SDS011;57837;52.064;113.478;2023-02-03T01:19:37;135.32;;;62.85;;
70414;SDS011;57837;52.064;113.478;2023-02-03T01:22:41;132.68;;;67.20;;
70414;SDS011;57837;52.064;113.478;2023-02-03T01:25:45;119.15;;;63.28;;
70414;SDS011;57837;52.064;113.478;2023-02-03T01:28:50;138.30;;;55.08;;
70414;SDS011;57837;52.064;113.478;2023-02-03T01:31:55;102.47;;;51.20;;
70414;SDS011;57837;52.064;113.478;2023-02-03T01:34:59;157.77;;;76.53;;
70414;SDS011;57837;52.064;113.478;2023-02-03T01:38:10;224.57;;;110.03;;
70414;SDS011;57837;52.064;113.478;2023-02-03T01:41:18;139.77;;;65.40;;
70414;SDS011;57837;52.064;113.478;2023-02-03T01:47:49;266.35;;;129.65;;
70414;SDS011;57837;52.064;113.478;2023-02-03T01:50:55;333.60;;;149.27;;
70414;SDS011;57837;52.064;113.478;2023-02-03T01:54:00;224.35;;;104.85;;
70414;SDS011;57837;52.064;113.478;2023-02-03T01:57:05;175.55;;;91.97;;
70414;SDS011;57837;52.064;113.478;2023-02-03T02:00:15;180.68;;;91.60;;
70414;SDS011;57837;52.064;113.478;2023-02-03T02:03:21;140.07;;;66.57;;
70414;SDS011;57837;52.064;113.478;2023-02-03T02:06:29;354.47;;;154.03;;
70414;SDS011;57837;52.064;113.478;2023-02-03T02:09:32;383.27;;;171.90;;
70414;SDS011;57837;52.064;113.478;2023-02-03T02:12:36;156.35;;;78.82;;
70414;SDS011;57837;52.064;113.478;2023-02-03T02:15:53;180.43;;;83.07;;
70414;SDS011;57837;52.064;113.478;2023-02-03T02:30:04;92.85;;;32.25;;
70414;SDS011;57837;52.064;113.478;2023-02-03T02:37:54;22.38;;;13.25;;
70414;SDS011;57837;52.064;113.478;2023-02-03T02:44:29;80.50;;;31.67;;
70414;SDS011;57837;52.064;113.478;2023-02-03T02:47:44;37.53;;;20.50;;
70414;SDS011;57837;52.064;113.478;2023-02-03T02:50:48;51.80;;;18.77;;
70414;SDS011;57837;52.064;113.478;2023-02-03T02:53:56;36.05;;;14.93;;
70414;SDS011;57837;52.064;113.478;2023-02-03T02:57:03;22.95;;;16.88;;
70414;SDS011;57837;52.064;113.478;2023-02-03T03:00:11;84.72;;;30.95;;
70414;SDS011;57837;52.064;113.478;2023-02-03T03:03:18;101.63;;;31.52;;
70414;SDS011;57837;52.064;113.478;2023-02-03T03:06:27;62.08;;;25.95;;
70414;SDS011;57837;52.064;113.478;2023-02-03T03:09:41;64.40;;;23.35;;
70414;SDS011;57837;52.064;113.478;2023-02-03T03:12:53;38.17;;;15.33;;
70414;SDS011;57837;52.064;113.478;2023-02-03T03:16:03;90.18;;;36.17;;
70414;SDS011;57837;52.064;113.478;2023-02-03T03:19:09;117.85;;;41.85;;
70414;SDS011;57837;52.064;113.478;2023-02-03T03:22:18;130.13;;;50.30;;
70414;SDS011;57837;52.064;113.478;2023-02-03T03:25:27;139.80;;;52.80;;
70414;SDS011;57837;52.064;113.478;2023-02-03T03:28:56;109.35;;;42.80;;
70414;SDS011;57837;52.064;113.478;2023-02-03T03:32:09;67.35;;;33.20;;
70414;SDS011;57837;52.064;113.478;2023-02-03T03:35:13;134.40;;;55.08;;
70414;SDS011;57837;52.064;113.478;2023-02-03T03:41:34;137.05;;;53.03;;
70414;SDS011;57837;52.064;113.478;2023-02-03T03:44:44;133.37;;;48.57;;
70414;SDS011;57837;52.064;113.478;2023-02-03T03:51:08;106.25;;;41.53;;
70414;SDS011;57837;52.064;113.478;2023-02-03T03:54:18;84.93;;;35.43;;
70414;SDS011;57837;52.064;113.478;2023-02-03T03:57:35;106.28;;;40.42;;
70414;SDS011;57837;52.064;113.478;2023-02-03T04:00:43;72.43;;;29.60;;
70414;SDS011;57837;52.064;113.478;2023-02-03T04:03:49;107.53;;;39.90;;
70414;SDS011;57837;52.064;113.478;2023-02-03T04:06:58;69.68;;;26.60;;
70414;SDS011;57837;52.064;113.478;2023-02-03T04:10:03;83.93;;;30.02;;
70414;SDS011;57837;52.064;113.478;2023-02-03T04:13:09;89.03;;;31.27;;
70414;SDS011;57837;52.064;113.478;2023-02-03T04:16:14;74.90;;;27.00;;
70414;SDS011;57837;52.064;113.478;2023-02-03T04:19:18;74.45;;;26.25;;
70414;SDS011;57837;52.064;113.478;2023-02-03T04:22:22;65.88;;;23.88;;
70414;SDS011;57837;52.064;113.478;2023-02-03T04:25:25;63.47;;;20.33;;
70414;SDS011;57837;52.064;113.478;2023-02-03T04:28:29;79.22;;;25.33;;
70414;SDS011;57837;52.064;113.478;2023-02-03T04:31:32;65.57;;;18.75;;
70414;SDS011;57837;52.064;113.478;2023-02-03T04:34:38;45.10;;;16.75;;
70414;SDS011;57837;52.064;113.478;2023-02-03T04:37:42;20.67;;;7.25;;
70414;SDS011;57837;52.064;113.478;2023-02-03T04:40:46;8.90;;;3.60;;
70414;SDS011;57837;52.064;113.478;2023-02-03T04:43:50;11.90;;;4.90;;
70414;SDS011;57837;52.064;113.478;2023-02-03T04:46:53;9.90;;;4.23;;
70414;SDS011;57837;52.064;113.478;2023-02-03T04:49:56;7.00;;;3.25;;
70414;SDS011;57837;52.064;113.478;2023-02-03T04:52:59;13.23;;;4.90;;
70414;SDS011;57837;52.064;113.478;2023-02-03T04:56:03;18.83;;;7.07;;
70414;SDS011;57837;52.064;113.478;2023-02-03T04:59:07;14.55;;;5.53;;
70414;SDS011;57837;52.064;113.478;2023-02-03T05:02:10;16.60;;;6.60;;
70414;SDS011;57837;52.064;113.478;2023-02-03T05:05:14;20.88;;;7.00;;
70414;SDS011;57837;52.064;113.478;2023-02-03T05:08:18;22.05;;;6.45;;
70414;SDS011;57837;52.064;113.478;2023-02-03T05:11:22;15.80;;;5.75;;
70414;SDS011;57837;52.064;113.478;2023-02-03T05:14:25;23.15;;;6.85;;
70414;SDS011;57837;52.064;113.478;2023-02-03T05:17:28;10.07;;;4.57;;
70414;SDS011;57837;52.064;113.478;2023-02-03T05:20:31;14.88;;;4.75;;
70414;SDS011;57837;52.064;113.478;2023-02-03T05:23:34;7.75;;;3.53;;
70414;SDS011;57837;52.064;113.478;2023-02-03T05:26:37;7.53;;;3.57;;
70414;SDS011;57837;52.064;113.478;2023-02-03T05:29:43;9.15;;;3.42;;
70414;SDS011;57837;52.064;113.478;2023-02-03T05:32:47;6.82;;;3.38;;
70414;SDS011;57837;52.064;113.478;2023-02-03T05:35:51;6.07;;;2.28;;
70414;SDS011;57837;52.064;113.478;2023-02-03T05:38:55;10.55;;;3.40;;
70414;SDS011;57837;52.064;113.478;2023-02-03T05:41:57;8.40;;;3.03;;
70414;SDS011;57837;52.064;113.478;2023-02-03T05:45:01;9.20;;;4.07;;
70414;SDS011;57837;52.064;113.478;2023-02-03T05:48:04;9.67;;;4.17;;
70414;SDS011;57837;52.064;113.478;2023-02-03T05:51:08;9.13;;;3.10;;
70414;SDS011;57837;52.064;113.478;2023-02-03T05:54:11;6.55;;;2.95;;
70414;SDS011;57837;52.064;113.478;2023-02-03T05:57:15;9.80;;;3.50;;
70414;SDS011;57837;52.064;113.478;2023-02-03T06:00:21;9.00;;;3.58;;
70414;SDS011;57837;52.064;113.478;2023-02-03T06:03:25;11.98;;;5.22;;
70414;SDS011;57837;52.064;113.478;2023-02-03T06:06:29;10.70;;;4.70;;
70414;SDS011;57837;52.064;113.478;2023-02-03T06:09:37;11.00;;;3.88;;
70414;SDS011;57837;52.064;113.478;2023-02-03T06:12:39;9.43;;;4.22;;
70414;SDS011;57837;52.064;113.478;2023-02-03T06:15:43;7.63;;;4.05;;
70414;SDS011;57837;52.064;113.478;2023-02-03T06:18:50;13.43;;;4.73;;
70414;SDS011;57837;52.064;113.478;2023-02-03T06:21:53;10.48;;;4.13;;
70414;SDS011;57837;52.064;113.478;2023-02-03T06:24:57;5.65;;;2.95;;
70414;SDS011;57837;52.064;113.478;2023-02-03T06:28:00;11.63;;;4.40;;
70414;SDS011;57837;52.064;113.478;2023-02-03T06:31:04;12.52;;;4.40;;
70414;SDS011;57837;52.064;113.478;2023-02-03T06:34:07;11.60;;;4.60;;
70414;SDS011;57837;52.064;113.478;2023-02-03T06:37:11;10.77;;;4.47;;
70414;SDS011;57837;52.064;113.478;2023-02-03T06:40:14;16.13;;;5.05;;
70414;SDS011;57837;52.064;113.478;2023-02-03T06:43:18;23.42;;;5.18;;
70414;SDS011;57837;52.064;113.478;2023-02-03T06:46:21;21.48;;;7.22;;
70414;SDS011;57837;52.064;113.478;2023-02-03T06:49:25;7.60;;;3.77;;
70414;SDS011;57837;52.064;113.478;2023-02-03T06:52:29;8.43;;;3.60;;
70414;SDS011;57837;52.064;113.478;2023-02-03T06:55:32;12.27;;;5.22;;
70414;SDS011;57837;52.064;113.478;2023-02-03T06:58:35;10.50;;;4.27;;
70414;SDS011;57837;52.064;113.478;2023-02-03T07:01:39;10.05;;;4.78;;
70414;SDS011;57837;52.064;113.478;2023-02-03T07:04:42;9.00;;;3.83;;
70414;SDS011;57837;52.064;113.478;2023-02-03T07:07:47;10.88;;;3.95;;
70414;SDS011;57837;52.064;113.478;2023-02-03T07:10:53;13.13;;;4.78;;
70414;SDS011;57837;52.064;113.478;2023-02-03T07:13:57;13.68;;;5.20;;
70414;SDS011;57837;52.064;113.478;2023-02-03T07:17:01;11.38;;;4.75;;
70414;SDS011;57837;52.064;113.478;2023-02-03T07:20:05;11.83;;;3.93;;
70414;SDS011;57837;52.064;113.478;2023-02-03T07:23:08;17.38;;;4.50;;
70414;SDS011;57837;52.064;113.478;2023-02-03T07:26:11;14.05;;;4.80;;
70414;SDS011;57837;52.064;113.478;2023-02-03T07:29:15;12.53;;;4.13;;
70414;SDS011;57837;52.064;113.478;2023-02-03T07:32:18;7.22;;;2.85;;
70414;SDS011;57837;52.064;113.478;2023-02-03T07:35:21;11.60;;;4.70;;
70414;SDS011;57837;52.064;113.478;2023-02-03T07:38:25;13.65;;;4.97;;
70414;SDS011;57837;52.064;113.478;2023-02-03T07:41:30;10.90;;;4.78;;
70414;SDS011;57837;52.064;113.478;2023-02-03T07:44:33;23.60;;;8.13;;
70414;SDS011;57837;52.064;113.478;2023-02-03T07:47:36;26.92;;;7.40;;
70414;SDS011;57837;52.064;113.478;2023-02-03T07:50:39;18.03;;;6.90;;
70414;SDS011;57837;52.064;113.478;2023-02-03T07:53:42;20.65;;;6.80;;
70414;SDS011;57837;52.064;113.478;2023-02-03T07:56:47;30.08;;;10.70;;
70414;SDS011;57837;52.064;113.478;2023-02-03T07:59:52;25.08;;;8.75;;
70414;SDS011;57837;52.064;113.478;2023-02-03T08:02:55;36.95;;;12.20;;
70414;SDS011;57837;52.064;113.478;2023-02-03T08:05:58;31.37;;;9.57;;
70414;SDS011;57837;52.064;113.478;2023-02-03T08:09:02;33.55;;;11.15;;
70414;SDS011;57837;52.064;113.478;2023-02-03T08:12:05;39.15;;;11.63;;
70414;SDS011;57837;52.064;113.478;2023-02-03T08:15:10;32.63;;;10.27;;
70414;SDS011;57837;52.064;113.478;2023-02-03T08:18:15;41.80;;;12.45;;
70414;SDS011;57837;52.064;113.478;2023-02-03T08:21:18;58.00;;;14.68;;
70414;SDS011;57837;52.064;113.478;2023-02-03T08:24:22;40.33;;;13.18;;
70414;SDS011;57837;52.064;113.478;2023-02-03T08:27:25;48.85;;;16.05;;
70414;SDS011;57837;52.064;113.478;2023-02-03T08:30:29;47.55;;;15.52;;
70414;SDS011;57837;52.064;113.478;2023-02-03T08:33:32;46.72;;;14.10;;
70414;SDS011;57837;52.064;113.478;2023-02-03T08:36:35;39.23;;;12.47;;
70414;SDS011;57837;52.064;113.478;2023-02-03T08:39:41;36.03;;;12.30;;
70414;SDS011;57837;52.064;113.478;2023-02-03T08:42:44;32.25;;;10.98;;
70414;SDS011;57837;52.064;113.478;2023-02-03T08:45:47;28.30;;;10.33;;
70414;SDS011;57837;52.064;113.478;2023-02-03T08:48:52;39.00;;;12.45;;
70414;SDS011;57837;52.064;113.478;2023-02-03T08:51:58;45.00;;;13.93;;
70414;SDS011;57837;52.064;113.478;2023-02-03T08:55:01;53.65;;;15.48;;
70414;SDS011;57837;52.064;113.478;2023-02-03T08:58:04;37.70;;;14.50;;
70414;SDS011;57837;52.064;113.478;2023-02-03T09:01:12;54.67;;;16.77;;
70414;SDS011;57837;52.064;113.478;2023-02-03T09:04:17;44.47;;;14.55;;
70414;SDS011;57837;52.064;113.478;2023-02-03T09:07:26;70.47;;;24.20;;
70414;SDS011;57837;52.064;113.478;2023-02-03T09:10:30;89.75;;;33.67;;
70414;SDS011;57837;52.064;113.478;2023-02-03T09:13:34;66.50;;;27.05;;
70414;SDS011;57837;52.064;113.478;2023-02-03T09:16:38;54.03;;;23.17;;
70414;SDS011;57837;52.064;113.478;2023-02-03T09:19:42;49.92;;;20.20;;
70414;SDS011;57837;52.064;113.478;2023-02-03T09:22:48;58.17;;;22.90;;
70414;SDS011;57837;52.064;113.478;2023-02-03T09:26:00;104.45;;;32.15;;
70414;SDS011;57837;52.064;113.478;2023-02-03T09:29:04;145.65;;;43.70;;
70414;SDS011;57837;52.064;113.478;2023-02-03T09:32:08;140.05;;;42.20;;
70414;SDS011;57837;52.064;113.478;2023-02-03T09:35:14;81.13;;;25.05;;
70414;SDS011;57837;52.064;113.478;2023-02-03T09:38:18;54.63;;;21.03;;
70414;SDS011;57837;52.064;113.478;2023-02-03T09:48:18;50.93;;;21.70;;
70414;SDS011;57837;52.064;113.478;2023-02-03T09:51:35;58.05;;;21.90;;
70414;SDS011;57837;52.064;113.478;2023-02-03T09:54:47;58.33;;;20.13;;
70414;SDS011;57837;52.064;113.478;2023-02-03T10:01:11;53.92;;;18.95;;
70414;SDS011;57837;52.064;113.478;2023-02-03T10:11:05;43.17;;;16.43;;
70414;SDS011;57837;52.064;113.478;2023-02-03T10:18:15;37.63;;;13.10;;
70414;SDS011;57837;52.064;113.478;2023-02-03T10:24:37;47.92;;;17.42;;
70414;SDS011;57837;52.064;113.478;2023-02-03T10:27:45;42.13;;;15.65;;
70414;SDS011;57837;52.064;113.478;2023-02-03T10:30:54;45.00;;;15.95;;
70414;SDS011;57837;52.064;113.478;2023-02-03T10:34:09;37.08;;;11.73;;
70414;SDS011;57837;52.064;113.478;2023-02-03T10:37:16;41.58;;;14.80;;
70414;SDS011;57837;52.064;113.478;2023-02-03T10:40:31;48.17;;;15.32;;
70414;SDS011;57837;52.064;113.478;2023-02-03T10:43:34;35.60;;;12.80;;
70414;SDS011;57837;52.064;113.478;2023-02-03T10:46:50;34.75;;;12.85;;
70414;SDS011;57837;52.064;113.478;2023-02-03T10:49:54;36.65;;;13.77;;
70414;SDS011;57837;52.064;113.478;2023-02-03T10:56:31;55.85;;;20.90;;
70414;SDS011;57837;52.064;113.478;2023-02-03T10:59:40;49.28;;;19.58;;
70414;SDS011;57837;52.064;113.478;2023-02-03T11:03:15;56.58;;;20.63;;
70414;SDS011;57837;52.064;113.478;2023-02-03T11:06:24;47.47;;;17.67;;
70414;SDS011;57837;52.064;113.478;2023-02-03T11:09:35;43.60;;;17.45;;
70414;SDS011;57837;52.064;113.478;2023-02-03T11:12:41;44.08;;;16.10;;
70414;SDS011;57837;52.064;113.478;2023-02-03T11:15:58;34.53;;;13.57;;
70414;SDS011;57837;52.064;113.478;2023-02-03T11:19:04;46.65;;;18.67;;
70414;SDS011;57837;52.064;113.478;2023-02-03T11:22:28;35.80;;;13.77;;
70414;SDS011;57837;52.064;113.478;2023-02-03T11:25:33;56.30;;;20.83;;
70414;SDS011;57837;52.064;113.478;2023-02-03T11:28:36;92.15;;;36.90;;
70414;SDS011;57837;52.064;113.478;2023-02-03T11:31:46;128.93;;;52.60;;
70414;SDS011;57837;52.064;113.478;2023-02-03T11:34:59;101.97;;;41.85;;
70414;SDS011;57837;52.064;113.478;2023-02-03T11:38:29;104.95;;;39.95;;
70414;SDS011;57837;52.064;113.478;2023-02-03T11:41:38;101.10;;;42.72;;
70414;SDS011;57837;52.064;113.478;2023-02-03T11:44:43;96.80;;;39.42;;
70414;SDS011;57837;52.064;113.478;2023-02-03T11:47:51;125.67;;;47.50;;
70414;SDS011;57837;52.064;113.478;2023-02-03T11:58:23;116.23;;;47.63;;
70414;SDS011;57837;52.064;113.478;2023-02-03T12:05:05;170.57;;;63.00;;
70414;SDS011;57837;52.064;113.478;2023-02-03T12:11:44;155.48;;;55.47;;
70414;SDS011;57837;52.064;113.478;2023-02-03T12:21:59;112.63;;;41.67;;
70414;SDS011;57837;52.064;113.478;2023-02-03T12:31:13;152.23;;;54.27;;
70414;SDS011;57837;52.064;113.478;2023-02-03T12:34:21;127.97;;;51.15;;
70414;SDS011;57837;52.064;113.478;2023-02-03T12:41:55;127.90;;;45.33;;
70414;SDS011;57837;52.064;113.478;2023-02-03T12:44:43;130.02;;;47.53;;
70414;SDS011;57837;52.064;113.478;2023-02-03T12:47:51;83.85;;;28.35;;
70414;SDS011;57837;52.064;113.478;2023-02-03T12:51:01;144.25;;;46.28;;
70414;SDS011;57837;52.064;113.478;2023-02-03T12:57:39;106.28;;;31.90;;
70414;SDS011;57837;52.064;113.478;2023-02-03T13:01:09;129.10;;;41.22;;
70414;SDS011;57837;52.064;113.478;2023-02-03T13:14:48;102.50;;;35.13;;
70414;SDS011;57837;52.064;113.478;2023-02-03T13:21:12;107.13;;;33.47;;
70414;SDS011;57837;52.064;113.478;2023-02-03T13:24:16;114.45;;;35.13;;
70414;SDS011;57837;52.064;113.478;2023-02-03T13:30:54;159.68;;;48.00;;
70414;SDS011;57837;52.064;113.478;2023-02-03T13:41:21;190.38;;;58.22;;
70414;SDS011;57837;52.064;113.478;2023-02-03T13:44:35;164.90;;;51.15;;
70414;SDS011;57837;52.064;113.478;2023-02-03T13:47:49;155.05;;;45.75;;
70414;SDS011;57837;52.064;113.478;2023-02-03T13:51:04;112.15;;;33.63;;
70414;SDS011;57837;52.064;113.478;2023-02-03T13:54:19;125.95;;;31.75;;
70414;SDS011;57837;52.064;113.478;2023-02-03T13:57:35;107.13;;;36.65;;
70414;SDS011;57837;52.064;113.478;2023-02-03T14:03:45;148.32;;;44.90;;
70414;SDS011;57837;52.064;113.478;2023-02-03T14:10:15;143.00;;;42.77;;
70414;SDS011;57837;52.064;113.478;2023-02-03T14:13:25;140.70;;;40.58;;
70414;SDS011;57837;52.064;113.478;2023-02-03T14:16:28;117.32;;;34.42;;
70414;SDS011;57837;52.064;113.478;2023-02-03T14:22:52;83.75;;;26.45;;
70414;SDS011;57837;52.064;113.478;2023-02-03T14:25:59;82.00;;;23.02;;
70414;SDS011;57837;52.064;113.478;2023-02-03T14:29:04;53.45;;;18.10;;
70414;SDS011;57837;52.064;113.478;2023-02-03T14:32:08;52.33;;;16.50;;
70414;SDS011;57837;52.064;113.478;2023-02-03T14:35:48;48.20;;;16.98;;
70414;SDS011;57837;52.064;113.478;2023-02-03T14:38:44;49.35;;;15.02;;
70414;SDS011;57837;52.064;113.478;2023-02-03T14:48:45;34.15;;;13.30;;
70414;SDS011;57837;52.064;113.478;2023-02-03T14:59:07;62.28;;;19.50;;
70414;SDS011;57837;52.064;113.478;2023-02-03T15:02:13;70.13;;;23.27;;
70414;SDS011;57837;52.064;113.478;2023-02-03T15:11:44;64.78;;;22.75;;
70414;SDS011;57837;52.064;113.478;2023-02-03T15:14:48;30.10;;;11.50;;
70414;SDS011;57837;52.064;113.478;2023-02-03T15:17:55;36.85;;;13.52;;
70414;SDS011;57837;52.064;113.478;2023-02-03T15:21:01;44.42;;;16.48;;
70414;SDS011;57837;52.064;113.478;2023-02-03T15:24:09;52.65;;;19.85;;
70414;SDS011;57837;52.064;113.478;2023-02-03T15:27:27;74.18;;;23.70;;
70414;SDS011;57837;52.064;113.478;2023-02-03T15:30:32;52.55;;;17.13;;
70414;SDS011;57837;52.064;113.478;2023-02-03T15:33:35;60.33;;;17.88;;
70414;SDS011;57837;52.064;113.478;2023-02-03T15:36:44;49.83;;;17.10;;
70414;SDS011;57837;52.064;113.478;2023-02-03T15:40:00;48.90;;;14.05;;
70414;SDS011;57837;52.064;113.478;2023-02-03T15:43:50;51.75;;;15.88;;
70414;SDS011;57837;52.064;113.478;2023-02-03T15:46:48;41.67;;;15.13;;
70414;SDS011;57837;52.064;113.478;2023-02-03T15:49:58;34.15;;;12.35;;
70414;SDS011;57837;52.064;113.478;2023-02-03T15:53:28;29.35;;;11.07;;
70414;SDS011;57837;52.064;113.478;2023-02-03T15:56:49;31.70;;;12.50;;
70414;SDS011;57837;52.064;113.478;2023-02-03T16:00:00;26.65;;;10.07;;
70414;SDS011;57837;52.064;113.478;2023-02-03T16:03:19;35.75;;;15.05;;
70414;SDS011;57837;52.064;113.478;2023-02-03T16:06:30;40.75;;;13.38;;
70414;SDS011;57837;52.064;113.478;2023-02-03T16:09:41;36.80;;;11.97;;
70414;SDS011;57837;52.064;113.478;2023-02-03T16:12:45;27.58;;;11.15;;
70414;SDS011;57837;52.064;113.478;2023-02-03T16:15:59;34.33;;;12.45;;
70414;SDS011;57837;52.064;113.478;2023-02-03T16:19:11;30.67;;;10.83;;
70414;SDS011;57837;52.064;113.478;2023-02-03T16:22:39;27.67;;;11.18;;
70414;SDS011;57837;52.064;113.478;2023-02-03T16:25:40;39.67;;;12.75;;
70414;SDS011;57837;52.064;113.478;2023-02-03T16:28:53;22.13;;;9.38;;
70414;SDS011;57837;52.064;113.478;2023-02-03T16:32:17;15.30;;;6.75;;
70414;SDS011;57837;52.064;113.478;2023-02-03T16:35:39;30.75;;;10.48;;
70414;SDS011;57837;52.064;113.478;2023-02-03T16:39:26;28.98;;;9.07;;
70414;SDS011;57837;52.064;113.478;2023-02-03T16:42:49;38.13;;;13.17;;
70414;SDS011;57837;52.064;113.478;2023-02-03T16:46:12;27.25;;;13.18;;
70414;SDS011;57837;52.064;113.478;2023-02-03T16:49:34;36.67;;;13.25;;
70414;SDS011;57837;52.064;113.478;2023-02-03T16:52:57;40.60;;;15.27;;
70414;SDS011;57837;52.064;113.478;2023-02-03T16:56:01;63.83;;;22.83;;
70414;SDS011;57837;52.064;113.478;2023-02-03T16:59:06;62.15;;;20.92;;
70414;SDS011;57837;52.064;113.478;2023-02-03T17:02:09;68.82;;;24.45;;
70414;SDS011;57837;52.064;113.478;2023-02-03T17:05:14;64.65;;;24.00;;
70414;SDS011;57837;52.064;113.478;2023-02-03T17:08:19;64.72;;;26.52;;
70414;SDS011;57837;52.064;113.478;2023-02-03T17:11:26;61.05;;;24.35;;
70414;SDS011;57837;52.064;113.478;2023-02-03T17:14:31;50.73;;;22.00;;
70414;SDS011;57837;52.064;113.478;2023-02-03T17:17:36;49.70;;;18.10;;
70414;SDS011;57837;52.064;113.478;2023-02-03T17:20:40;50.60;;;18.42;;
70414;SDS011;57837;52.064;113.478;2023-02-03T17:23:44;47.80;;;16.43;;
70414;SDS011;57837;52.064;113.478;2023-02-03T17:26:47;44.50;;;17.75;;
70414;SDS011;57837;52.064;113.478;2023-02-03T17:29:52;51.90;;;16.73;;
70414;SDS011;57837;52.064;113.478;2023-02-03T17:32:54;54.28;;;17.83;;
70414;SDS011;57837;52.064;113.478;2023-02-03T17:39:05;49.13;;;16.75;;
70414;SDS011;57837;52.064;113.478;2023-02-03T17:42:26;61.72;;;18.10;;
70414;SDS011;57837;52.064;113.478;2023-02-03T17:45:47;49.50;;;15.33;;
70414;SDS011;57837;52.064;113.478;2023-02-03T17:49:08;47.50;;;18.45;;
70414;SDS011;57837;52.064;113.478;2023-02-03T17:52:29;62.85;;;18.48;;
70414;SDS011;57837;52.064;113.478;2023-02-03T17:55:51;49.20;;;15.77;;
70414;SDS011;57837;52.064;113.478;2023-02-03T17:58:58;34.17;;;14.25;;
70414;SDS011;57837;52.064;113.478;2023-02-03T18:02:02;45.72;;;15.35;;
70414;SDS011;57837;52.064;113.478;2023-02-03T18:05:06;20.23;;;8.30;;
70414;SDS011;57837;52.064;113.478;2023-02-03T18:08:09;41.15;;;14.63;;
70414;SDS011;57837;52.064;113.478;2023-02-03T18:11:23;45.65;;;16.35;;
70414;SDS011;57837;52.064;113.478;2023-02-03T18:14:27;31.55;;;12.88;;
70414;SDS011;57837;52.064;113.478;2023-02-03T18:17:31;28.73;;;12.67;;
70414;SDS011;57837;52.064;113.478;2023-02-03T18:20:34;41.85;;;15.95;;
70414;SDS011;57837;52.064;113.478;2023-02-03T18:23:38;49.63;;;17.83;;
70414;SDS011;57837;52.064;113.478;2023-02-03T18:26:44;35.37;;;14.13;;
70414;SDS011;57837;52.064;113.478;2023-02-03T18:29:49;40.85;;;13.88;;
70414;SDS011;57837;52.064;113.478;2023-02-03T18:32:53;39.75;;;11.93;;
70414;SDS011;57837;52.064;113.478;2023-02-03T18:35:57;26.70;;;9.23;;
70414;SDS011;57837;52.064;113.478;2023-02-03T18:39:03;26.98;;;10.40;;
70414;SDS011;57837;52.064;113.478;2023-02-03T18:42:09;33.03;;;11.60;;
70414;SDS011;57837;52.064;113.478;2023-02-03T18:45:13;34.35;;;12.30;;
70414;SDS011;57837;52.064;113.478;2023-02-03T18:48:19;35.90;;;13.70;;
70414;SDS011;57837;52.064;113.478;2023-02-03T18:51:23;36.28;;;12.15;;
70414;SDS011;57837;52.064;113.478;2023-02-03T18:54:27;28.90;;;11.65;;
70414;SDS011;57837;52.064;113.478;2023-02-03T18:57:32;25.60;;;9.20;;
70414;SDS011;57837;52.064;113.478;2023-02-03T19:00:35;32.63;;;10.75;;
70414;SDS011;57837;52.064;113.478;2023-02-03T19:03:40;27.42;;;10.15;;
70414;SDS011;57837;52.064;113.478;2023-02-03T19:06:44;21.02;;;9.63;;
70414;SDS011;57837;52.064;113.478;2023-02-03T19:09:49;29.00;;;11.63;;
70414;SDS011;57837;52.064;113.478;2023-02-03T19:12:52;35.88;;;14.60;;
70414;SDS011;57837;52.064;113.478;2023-02-03T19:15:56;36.85;;;15.43;;
70414;SDS011;57837;52.064;113.478;2023-02-03T19:19:00;24.07;;;9.53;;
70414;SDS011;57837;52.064;113.478;2023-02-03T19:22:04;22.75;;;9.80;;
70414;SDS011;57837;52.064;113.478;2023-02-03T19:25:09;26.13;;;10.18;;
70414;SDS011;57837;52.064;113.478;2023-02-03T19:28:16;17.97;;;8.60;;
70414;SDS011;57837;52.064;113.478;2023-02-03T19:31:33;23.58;;;9.20;;
70414;SDS011;57837;52.064;113.478;2023-02-03T19:34:37;17.95;;;7.32;;
70414;SDS011;57837;52.064;113.478;2023-02-03T19:37:41;14.02;;;6.45;;
70414;SDS011;57837;52.064;113.478;2023-02-03T19:40:45;14.68;;;5.93;;
70414;SDS011;57837;52.064;113.478;2023-02-03T19:43:48;15.70;;;6.53;;
70414;SDS011;57837;52.064;113.478;2023-02-03T19:46:54;21.98;;;7.05;;
70414;SDS011;57837;52.064;113.478;2023-02-03T19:50:00;20.03;;;7.37;;
70414;SDS011;57837;52.064;113.478;2023-02-03T19:53:03;23.92;;;7.38;;
70414;SDS011;57837;52.064;113.478;2023-02-03T19:56:12;25.58;;;7.65;;
70414;SDS011;57837;52.064;113.478;2023-02-03T19:59:16;34.17;;;10.07;;
70414;SDS011;57837;52.064;113.478;2023-02-03T20:02:20;41.47;;;12.82;;
70414;SDS011;57837;52.064;113.478;2023-02-03T20:05:24;31.30;;;10.48;;
70414;SDS011;57837;52.064;113.478;2023-02-03T20:08:27;44.85;;;12.55;;
70414;SDS011;57837;52.064;113.478;2023-02-03T20:11:31;41.08;;;10.98;;
70414;SDS011;57837;52.064;113.478;2023-02-03T20:14:34;40.63;;;11.75;;
70414;SDS011;57837;52.064;113.478;2023-02-03T20:17:38;33.40;;;12.70;;